Terminal Aerodrome Forecast
Issued by NWS

Current Version | Previous Version | Text Only | Print | Product List | Glossary On
Versions: 1 2 3 4 5 6 7 8 9 10 11 12 13 14 15 16 17 18 19 20 21 22 23
000
FTAK31 PAFA 200811 AAA
TAFASC
TAF AMD
PASC 200811Z 2008/2106 09006KT P6SM VCSH OVC009
      TEMPO 2009/2012 1SM BR OVC004
     FM202000 06009KT P6SM OVC007=

USA.gov is the U.S. government's official web portal to all federal, state and local government web resources and services.